Time;durP1;ratioP1;P1;durP2;ratioP2;P2;SDS_P1;SDS_P2;PMS_P1;PMS_P2;Temp;Humidity;BMP_temperature;BMP_pressure;BME280_temperature;BME280_humidity;BME280_pressure;Samples;Min_cycle;Max_cycle;Signal;HPM_P1;HPM_P2
2023/04/23 00:01:02;;;;;;;39.85;30.42;;;9.60;99.90;;;;;;5015905;28;20045;-78
2023/04/23 00:03:32;;;;;;;41.33;31.13;;;9.50;99.90;;;;;;5016074;28;20049;-78
2023/04/23 00:05:58;;;;;;;40.92;31.52;;;9.50;99.90;;;;;;5015730;28;20052;-77
2023/04/23 00:08:26;;;;;;;44.50;31.80;;;9.40;99.90;;;;;;5015502;28;20052;-77
2023/04/23 00:10:52;;;;;;;38.28;29.65;;;9.40;99.90;;;;;;5015968;28;20045;-77
2023/04/23 00:13:18;;;;;;;38.28;29.75;;;9.40;99.90;;;;;;4999487;28;20068;-77
2023/04/23 00:15:44;;;;;;;39.97;30.58;;;9.40;99.90;;;;;;5015837;28;20111;-77
2023/04/23 00:18:09;;;;;;;37.10;29.00;;;9.40;99.90;;;;;;5015812;28;20049;-77
2023/04/23 00:20:35;;;;;;;43.08;31.45;;;9.40;99.90;;;;;;4999772;28;20045;-78
2023/04/23 00:23:01;;;;;;;37.50;29.27;;;9.40;99.90;;;;;;5020116;28;20053;-77
2023/04/23 00:25:27;;;;;;;39.60;30.40;;;9.40;99.90;;;;;;5036391;28;20477;-78
2023/04/23 00:27:53;;;;;;;40.67;31.45;;;9.50;99.90;;;;;;5019181;28;20042;-77
2023/04/23 00:30:18;;;;;;;45.45;34.55;;;9.50;99.90;;;;;;5002927;28;20045;-77
2023/04/23 00:32:44;;;;;;;36.33;28.98;;;9.40;99.90;;;;;;4970777;28;20066;-78
2023/04/23 00:35:10;;;;;;;45.13;32.83;;;9.40;99.90;;;;;;5019202;28;20157;-77
2023/04/23 00:37:36;;;;;;;37.80;30.27;;;9.40;99.90;;;;;;5019764;28;20045;-78
2023/04/23 00:40:03;;;;;;;37.70;30.25;;;9.30;99.90;;;;;;5003262;28;20072;-79
2023/04/23 00:42:29;;;;;;;43.97;31.85;;;9.30;99.90;;;;;;5019293;28;20144;-77
2023/04/23 00:44:58;;;;;;;43.72;34.13;;;9.30;99.90;;;;;;5035089;28;20136;-77
2023/04/23 00:47:24;;;;;;;46.03;34.45;;;9.20;99.90;;;;;;5019598;28;20053;-77
2023/04/23 00:49:54;;;;;;;50.13;35.78;;;9.20;99.90;;;;;;5003246;28;20133;-78
2023/04/23 00:52:23;;;;;;;47.97;35.88;;;9.10;99.90;;;;;;5019343;28;20045;-77
2023/04/23 00:54:48;;;;;;;51.95;36.50;;;9.10;99.90;;;;;;5002979;28;20128;-77
2023/04/23 00:57:15;;;;;;;50.95;35.10;;;9.10;99.90;;;;;;5018980;28;20052;-78
2023/04/23 00:59:42;;;;;;;45.60;35.25;;;9.10;99.90;;;;;;4986789;28;20481;-78
2023/04/23 01:02:07;;;;;;;49.38;36.28;;;8.90;99.90;;;;;;5019110;28;20064;-78
2023/04/23 01:04:35;;;;;;;44.60;33.40;;;8.90;99.90;;;;;;5018784;28;20045;-78
2023/04/23 01:07:01;;;;;;;49.20;35.70;;;8.90;99.90;;;;;;5019189;28;20401;-77
2023/04/23 01:09:27;;;;;;;44.10;33.53;;;8.90;99.90;;;;;;5019100;28;20057;-78
2023/04/23 01:11:54;;;;;;;61.85;39.50;;;8.80;99.90;;;;;;5018472;28;20673;-78
2023/04/23 01:14:20;;;;;;;47.70;36.15;;;8.80;99.90;;;;;;5019076;28;20139;-78
2023/04/23 01:16:46;;;;;;;58.13;40.33;;;8.80;99.90;;;;;;5018397;28;20084;-78
2023/04/23 01:19:14;;;;;;;54.05;39.38;;;8.80;99.90;;;;;;4986529;28;20061;-78
2023/04/23 01:21:41;;;;;;;52.40;39.03;;;8.80;99.90;;;;;;5002093;28;20045;-77
2023/04/23 01:24:08;;;;;;;64.55;43.15;;;8.70;99.90;;;;;;5001959;28;20061;-77
2023/04/23 01:26:35;;;;;;;50.92;37.00;;;8.70;99.90;;;;;;5018598;28;20041;-77
2023/04/23 01:29:01;;;;;;;59.67;41.42;;;8.70;99.90;;;;;;5018757;28;20049;-76
2023/04/23 01:31:28;;;;;;;48.17;36.50;;;8.70;99.90;;;;;;5018716;28;20049;-77
2023/04/23 01:33:54;;;;;;;71.43;43.38;;;8.60;99.90;;;;;;5016733;28;20087;-77
2023/04/23 01:36:22;;;;;;;67.80;45.05;;;8.70;99.90;;;;;;5018649;28;20132;-77
2023/04/23 01:38:48;;;;;;;59.13;41.83;;;8.60;99.90;;;;;;5018632;28;20049;-77
2023/04/23 01:41:14;;;;;;;56.33;41.17;;;8.60;99.90;;;;;;5018121;28;20049;-77
2023/04/23 01:43:44;;;;;;;59.55;42.25;;;8.60;99.90;;;;;;5018294;28;20513;-77
2023/04/23 01:46:10;;;;;;;54.05;40.13;;;8.60;99.90;;;;;;5002146;28;20057;-77
2023/04/23 01:48:36;;;;;;;80.28;48.60;;;8.60;99.90;;;;;;5018454;28;20056;-78
2023/04/23 01:51:02;;;;;;;58.72;42.38;;;8.60;99.90;;;;;;5001631;28;20053;-78
2023/04/23 01:53:28;;;;;;;58.67;41.53;;;8.60;99.90;;;;;;5018451;28;20056;-78
2023/04/23 01:55:55;;;;;;;62.58;44.00;;;8.60;99.90;;;;;;5018189;28;20467;-78
2023/04/23 01:58:22;;;;;;;49.78;37.33;;;8.60;99.90;;;;;;5017930;28;20100;-78
2023/04/23 02:00:49;;;;;;;57.65;42.47;;;8.60;99.90;;;;;;5017915;28;20056;-77
2023/04/23 02:03:15;;;;;;;80.90;49.00;;;8.60;99.90;;;;;;5017731;28;20473;-78
2023/04/23 02:05:42;;;;;;;73.97;47.17;;;8.60;99.90;;;;;;5017759;28;20473;-77
2023/04/23 02:08:08;;;;;;;73.72;47.88;;;8.60;99.90;;;;;;5018144;28;20088;-77
2023/04/23 02:10:34;;;;;;;70.22;48.13;;;8.60;99.90;;;;;;5018121;28;20053;-77
2023/04/23 02:13:01;;;;;;;118.95;56.20;;;8.60;99.90;;;;;;5001313;28;20453;-77
2023/04/23 02:15:26;;;;;;;80.78;51.75;;;8.60;99.90;;;;;;5001632;28;20056;-77
2023/04/23 02:17:52;;;;;;;79.55;50.55;;;8.60;99.90;;;;;;5017486;28;20136;-77
2023/04/23 02:20:20;;;;;;;84.43;51.63;;;8.50;99.90;;;;;;5017169;28;20096;-76
2023/04/23 02:22:47;;;;;;;86.55;53.72;;;8.50;99.90;;;;;;5017875;28;20088;-77
2023/04/23 02:25:16;;;;;;;74.63;51.45;;;8.40;99.90;;;;;;5017691;28;20053;-77
2023/04/23 02:27:43;;;;;;;78.45;51.10;;;8.50;99.90;;;;;;5017454;28;20045;-77
2023/04/23 02:30:10;;;;;;;76.20;51.03;;;8.40;99.90;;;;;;5001355;28;20057;-77
2023/04/23 02:32:36;;;;;;;74.25;50.13;;;8.40;99.90;;;;;;5016929;28;20552;-78
2023/04/23 02:35:05;;;;;;;51.13;39.55;;;8.30;99.90;;;;;;5017511;28;20060;-78
2023/04/23 02:37:32;;;;;;;54.78;40.60;;;8.30;99.90;;;;;;5017490;28;20072;-77
2023/04/23 02:39:58;;;;;;;50.88;39.20;;;8.30;99.90;;;;;;4984954;28;20049;-77
2023/04/23 02:42:23;;;;;;;51.67;39.38;;;8.40;99.90;;;;;;5017132;28;20053;-77
2023/04/23 02:44:49;;;;;;;52.15;39.28;;;8.40;99.90;;;;;;5016966;28;20102;-77
2023/04/23 02:47:15;;;;;;;52.30;40.08;;;8.50;99.90;;;;;;4984736;28;20055;-77
2023/04/23 02:49:40;;;;;;;51.10;38.78;;;8.50;99.90;;;;;;5000965;28;20085;-78
2023/04/23 02:52:06;;;;;;;49.67;38.58;;;8.50;99.90;;;;;;5017201;28;20045;-77
2023/04/23 02:54:32;;;;;;;50.90;38.90;;;8.50;99.90;;;;;;5017175;28;20488;-77
2023/04/23 02:56:58;;;;;;;79.45;52.50;;;8.60;99.90;;;;;;5000754;28;20077;-77
2023/04/23 02:59:24;;;;;;;51.78;39.35;;;8.50;99.90;;;;;;5000553;28;20073;-77
2023/04/23 03:01:50;;;;;;;51.75;40.00;;;8.50;99.90;;;;;;5016860;28;20041;-77
2023/04/23 03:04:20;;;;;;;68.60;47.90;;;8.40;99.90;;;;;;5016843;28;20084;-77
2023/04/23 03:06:46;;;;;;;64.38;46.17;;;8.40;99.90;;;;;;5000535;28;20099;-77
2023/04/23 03:09:12;;;;;;;90.05;57.90;;;8.30;99.90;;;;;;5000410;28;20444;-77
2023/04/23 03:11:38;;;;;;;136.57;70.65;;;8.30;99.90;;;;;;5000380;28;20120;-77
2023/04/23 03:14:04;;;;;;;99.57;64.40;;;8.20;99.90;;;;;;5016222;28;20045;-77
2023/04/23 03:16:30;;;;;;;117.65;70.88;;;8.10;99.90;;;;;;5000477;28;20060;-77
2023/04/23 03:18:57;;;;;;;98.22;62.70;;;8.00;99.90;;;;;;5016611;28;20041;-78
2023/04/23 03:21:23;;;;;;;117.07;69.50;;;8.00;99.90;;;;;;5016529;28;20084;-77
2023/04/23 03:23:49;;;;;;;101.85;63.90;;;8.00;99.90;;;;;;5016624;28;20082;-77
2023/04/23 03:26:14;;;;;;;93.07;60.60;;;7.90;99.90;;;;;;5000251;28;20099;-77
2023/04/23 03:28:40;;;;;;;103.53;66.65;;;7.90;99.90;;;;;;5016375;28;20049;-77
2023/04/23 03:31:06;;;;;;;122.47;70.65;;;7.90;99.90;;;;;;5016369;28;20045;-77
2023/04/23 03:33:32;;;;;;;108.63;68.68;;;7.90;99.90;;;;;;4999562;28;20053;-77
2023/04/23 03:35:58;;;;;;;106.25;67.32;;;7.90;99.90;;;;;;5000177;28;20045;-77
2023/04/23 03:38:23;;;;;;;106.45;66.40;;;7.80;99.90;;;;;;5000155;28;20068;-78
2023/04/23 03:40:49;;;;;;;127.28;74.88;;;7.80;99.90;;;;;;4999714;28;20124;-77
2023/04/23 03:43:15;;;;;;;107.13;66.55;;;7.90;99.90;;;;;;5016230;28;20049;-76
2023/04/23 03:45:40;;;;;;;111.63;67.07;;;8.00;99.90;;;;;;5015827;28;20056;-78
2023/04/23 03:48:06;;;;;;;113.28;69.35;;;8.10;99.90;;;;;;4999772;28;20041;-77
2023/04/23 03:50:37;;;;;;;108.65;65.90;;;8.10;99.90;;;;;;4967539;28;20045;-77
2023/04/23 03:53:03;;;;;;;113.25;68.43;;;8.00;99.90;;;;;;5016161;28;20084;-77
2023/04/23 03:55:29;;;;;;;99.07;62.70;;;7.90;99.90;;;;;;5014963;28;20130;-77
2023/04/23 03:57:54;;;;;;;102.75;65.43;;;7.80;99.90;;;;;;5032564;28;20052;-77
2023/04/23 04:00:20;;;;;;;100.07;63.15;;;7.80;99.90;;;;;;5015817;28;20045;-77
2023/04/23 04:02:46;;;;;;;104.00;64.10;;;7.80;99.90;;;;;;5015751;28;20041;-77
2023/04/23 04:05:12;;;;;;;101.15;64.55;;;8.00;99.90;;;;;;4999388;28;20409;-77
2023/04/23 04:07:41;;;;;;;99.13;63.55;;;8.00;99.90;;;;;;5015851;28;20045;-77
2023/04/23 04:10:07;;;;;;;99.93;62.17;;;7.90;99.90;;;;;;4983726;28;20400;-77
2023/04/23 04:12:35;;;;;;;103.88;64.75;;;7.90;99.90;;;;;;5016024;28;20362;-77
2023/04/23 04:15:02;;;;;;;105.97;64.07;;;7.90;99.90;;;;;;5000028;28;20450;-78
2023/04/23 04:17:30;;;;;;;105.60;62.88;;;7.80;99.90;;;;;;4999710;28;20077;-78
2023/04/23 04:19:56;;;;;;;109.18;63.80;;;7.80;99.90;;;;;;4999705;28;20052;-78
2023/04/23 04:22:22;;;;;;;108.90;63.92;;;7.90;99.90;;;;;;4983140;28;20053;-77
2023/04/23 04:24:47;;;;;;;111.18;66.80;;;7.90;99.90;;;;;;5015880;28;20481;-77
2023/04/23 04:27:13;;;;;;;115.13;64.85;;;7.80;99.90;;;;;;5015225;28;20088;-77
2023/04/23 04:29:42;;;;;;;109.00;63.97;;;7.80;99.90;;;;;;4998841;28;20063;-77
2023/04/23 04:32:12;;;;;;;107.40;65.05;;;7.80;99.90;;;;;;5015790;28;20056;-77
2023/04/23 04:34:38;;;;;;;115.00;66.07;;;7.80;99.90;;;;;;5015132;28;20409;-77
2023/04/23 04:37:04;;;;;;;115.05;64.25;;;7.80;99.90;;;;;;5015775;28;20500;-77
2023/04/23 04:39:29;;;;;;;111.90;65.60;;;7.80;99.90;;;;;;5015622;28;20041;-77
2023/04/23 04:41:56;;;;;;;120.95;67.53;;;7.80;99.90;;;;;;5015148;28;20052;-77
2023/04/23 04:44:22;;;;;;;124.30;69.47;;;7.70;99.90;;;;;;4999490;28;20065;-77
2023/04/23 04:46:48;;;;;;;116.25;66.47;;;7.80;99.90;;;;;;5015436;28;20211;-77
2023/04/23 04:49:18;;;;;;;129.90;70.20;;;7.80;99.90;;;;;;4999085;28;20060;-77
2023/04/23 04:51:44;;;;;;;130.65;73.70;;;7.80;99.90;;;;;;4984348;28;20053;-77
2023/04/23 04:54:10;;;;;;;134.73;71.40;;;7.80;99.90;;;;;;5015084;28;20128;-78
2023/04/23 04:56:35;;;;;;;139.48;74.45;;;7.80;99.90;;;;;;5015687;28;20149;-78
2023/04/23 04:59:02;;;;;;;132.32;73.63;;;7.80;99.90;;;;;;5015543;28;20057;-78
2023/04/23 05:01:28;;;;;;;140.32;72.75;;;7.80;99.90;;;;;;5015471;28;20048;-77
2023/04/23 05:03:55;;;;;;;124.70;67.68;;;7.90;99.90;;;;;;5014798;28;20515;-77
2023/04/23 05:06:21;;;;;;;130.45;69.40;;;7.90;99.90;;;;;;5015203;28;20041;-78
2023/04/23 05:08:47;;;;;;;129.98;69.45;;;8.00;99.90;;;;;;5018893;28;20128;-78
2023/04/23 05:11:14;;;;;;;133.88;71.50;;;8.00;99.90;;;;;;5019063;28;20046;-78
2023/04/23 05:13:40;;;;;;;149.80;82.25;;;8.00;99.90;;;;;;5018752;28;20048;-78
2023/04/23 05:16:07;;;;;;;151.57;80.97;;;8.10;99.90;;;;;;5018762;28;20053;-78
2023/04/23 05:18:32;;;;;;;145.77;77.53;;;8.20;99.90;;;;;;5018970;28;20057;-78
2023/04/23 05:20:59;;;;;;;150.30;79.43;;;8.30;99.90;;;;;;5018828;28;20090;-78
2023/04/23 05:23:25;;;;;;;135.27;71.47;;;8.40;99.90;;;;;;5018939;28;20046;-77
2023/04/23 05:25:52;;;;;;;139.23;72.38;;;8.50;99.90;;;;;;5002218;28;20056;-78
2023/04/23 05:28:17;;;;;;;132.27;71.22;;;8.60;99.90;;;;;;5018503;28;20401;-78
2023/04/23 05:30:43;;;;;;;135.02;73.20;;;8.60;99.90;;;;;;5018431;28;20042;-78
2023/04/23 05:33:11;;;;;;;135.13;75.07;;;8.60;99.90;;;;;;5018176;28;20049;-78
2023/04/23 05:35:37;;;;;;;126.35;66.15;;;8.60;99.90;;;;;;5018761;28;20107;-77
2023/04/23 05:38:03;;;;;;;132.07;74.68;;;8.70;99.90;;;;;;4986164;28;20493;-77
2023/04/23 05:40:29;;;;;;;126.32;71.43;;;8.80;99.90;;;;;;5018185;28;20072;-78
2023/04/23 05:42:58;;;;;;;130.07;71.75;;;8.80;99.90;;;;;;5018257;28;20053;-77
2023/04/23 05:45:24;;;;;;;120.38;65.82;;;8.80;99.90;;;;;;5002161;28;20045;-78
2023/04/23 05:47:50;;;;;;;119.85;67.03;;;8.90;99.90;;;;;;5018316;28;20053;-77
2023/04/23 05:50:17;;;;;;;121.35;67.20;;;9.00;99.90;;;;;;5002240;28;20119;-78
2023/04/23 05:52:42;;;;;;;127.13;72.75;;;9.00;99.90;;;;;;5018301;28;20061;-78
2023/04/23 05:55:08;;;;;;;120.05;64.40;;;9.00;99.90;;;;;;5018207;28;20049;-78
2023/04/23 05:57:36;;;;;;;112.40;62.20;;;9.00;99.90;;;;;;5018387;28;20362;-77
2023/04/23 06:00:08;;;;;;;105.03;58.58;;;9.10;99.90;;;;;;4999006;28;20499;-77
2023/04/23 06:02:34;;;;;;;;;;;9.10;99.90;;;;;;4998588;28;20504;-77
2023/04/23 06:05:00;;;;;;;114.28;64.70;;;9.10;99.90;;;;;;4998051;28;19921;-78
2023/04/23 06:07:26;;;;;;;126.25;74.45;;;9.10;99.90;;;;;;4998565;28;20041;-77
2023/04/23 06:09:51;;;;;;;119.32;69.85;;;9.10;99.90;;;;;;4982413;28;20061;-78
2023/04/23 06:12:17;;;;;;;113.30;67.18;;;9.20;99.90;;;;;;4998252;28;20374;-77
2023/04/23 06:14:43;;;;;;;115.20;67.93;;;9.30;99.90;;;;;;4998004;28;20056;-78
2023/04/23 06:17:09;;;;;;;112.10;69.13;;;9.60;99.90;;;;;;4997989;28;20046;-78
2023/04/23 06:19:35;;;;;;;103.22;67.35;;;9.90;99.90;;;;;;4997647;28;20101;-79
2023/04/23 06:22:03;;;;;;;97.97;63.40;;;10.30;99.90;;;;;;5014320;28;20390;-79
2023/04/23 06:24:29;;;;;;;89.50;59.10;;;10.50;99.90;;;;;;4997587;28;20132;-78
2023/04/23 06:26:55;;;;;;;82.53;55.30;;;10.70;99.90;;;;;;4981638;28;20148;-78
2023/04/23 06:29:21;;;;;;;79.18;53.78;;;10.90;99.90;;;;;;4997959;28;20048;-78
2023/04/23 06:31:46;;;;;;;77.15;55.03;;;11.10;99.90;;;;;;4981845;28;20085;-78
2023/04/23 06:34:12;;;;;;;74.43;52.03;;;11.20;99.90;;;;;;4980011;28;20448;-78
2023/04/23 06:36:38;;;;;;;72.15;49.72;;;11.10;99.90;;;;;;5001311;28;20049;-78
2023/04/23 06:39:04;;;;;;;63.30;46.33;;;11.80;99.90;;;;;;5001179;28;20037;-78
2023/04/23 06:41:29;;;;;;;66.60;47.70;;;12.00;99.90;;;;;;5001030;28;20106;-78
2023/04/23 06:43:55;;;;;;;62.80;45.60;;;12.10;99.90;;;;;;5001098;28;20122;-78
2023/04/23 06:46:21;;;;;;;61.85;46.28;;;12.10;99.90;;;;;;5033574;28;20041;-78
2023/04/23 06:48:46;;;;;;;60.72;46.53;;;12.30;99.90;;;;;;5017346;28;20053;-78
2023/04/23 06:51:13;;;;;;;63.72;47.40;;;12.50;99.90;;;;;;5016829;28;20480;-78
2023/04/23 06:53:39;;;;;;;59.95;46.50;;;12.60;99.90;;;;;;5017350;28;20103;-79
2023/04/23 06:56:06;;;;;;;57.17;43.78;;;12.90;99.90;;;;;;5017272;28;20049;-79
2023/04/23 06:58:32;;;;;;;58.53;46.10;;;13.40;99.90;;;;;;5016523;28;20081;-79
2023/04/23 07:01:04;;;;;;;56.88;44.60;;;13.60;99.90;;;;;;5000738;28;20172;-79
2023/04/23 07:03:33;;;;;;;;;;;13.80;99.90;;;;;;5017665;28;20037;-79
2023/04/23 07:05:58;;;;;;;56.20;43.95;;;13.90;99.90;;;;;;5000850;28;20332;-79
2023/04/23 07:08:24;;;;;;;52.63;41.55;;;14.10;99.90;;;;;;5000422;28;20041;-79
2023/04/23 07:10:50;;;;;;;51.55;41.40;;;14.00;99.90;;;;;;5000563;28;20053;-79
2023/04/23 07:13:16;;;;;;;54.40;42.92;;;14.00;99.90;;;;;;5016248;28;20087;-78
2023/04/23 07:15:42;;;;;;;51.80;41.00;;;14.10;99.90;;;;;;5016238;28;20076;-79
2023/04/23 07:18:08;;;;;;;53.38;40.40;;;14.20;99.90;;;;;;5016224;28;20050;-78
2023/04/23 07:20:34;;;;;;;47.05;37.97;;;14.20;99.90;;;;;;5016608;28;20057;-78
2023/04/23 07:23:02;;;;;;;48.40;39.63;;;14.30;99.90;;;;;;5000374;28;20053;-79
2023/04/23 07:25:31;;;;;;;49.03;39.80;;;14.40;99.90;;;;;;5000658;28;20050;-79
2023/04/23 07:27:57;;;;;;;47.72;37.45;;;14.60;99.90;;;;;;4999884;28;20040;-79
2023/04/23 07:30:26;;;;;;;46.30;38.38;;;14.70;99.90;;;;;;5016255;28;20401;-79
2023/04/23 07:32:54;;;;;;;43.55;36.15;;;14.90;99.90;;;;;;5015795;28;20168;-79
2023/04/23 07:35:20;;;;;;;41.92;35.70;;;15.30;99.90;;;;;;5016472;28;20050;-80
2023/04/23 07:37:46;;;;;;;44.90;37.15;;;15.40;99.90;;;;;;5016125;28;20046;-80
2023/04/23 07:40:12;;;;;;;44.45;36.53;;;15.50;99.90;;;;;;5016444;28;20060;-80
2023/04/23 07:42:38;;;;;;;41.33;34.33;;;15.60;99.90;;;;;;5015774;28;20037;-81
2023/04/23 07:45:05;;;;;;;42.40;34.67;;;15.60;99.90;;;;;;5016332;28;20053;-80
2023/04/23 07:47:30;;;;;;;39.92;32.90;;;15.50;99.90;;;;;;5016085;28;20377;-80
2023/04/23 07:49:56;;;;;;;39.33;32.63;;;15.30;99.90;;;;;;5016006;28;20048;-80
2023/04/23 07:52:22;;;;;;;40.15;33.72;;;15.00;99.90;;;;;;5016337;28;20095;-80
2023/04/23 07:54:48;;;;;;;40.47;34.40;;;14.60;99.90;;;;;;5016259;28;20465;-80
2023/04/23 07:57:13;;;;;;;39.67;33.20;;;14.40;99.90;;;;;;4999854;28;20428;-81
2023/04/23 07:59:39;;;;;;;36.88;30.15;;;14.30;99.90;;;;;;4999817;28;20507;-81
2023/04/23 08:02:05;;;;;;;36.53;30.60;;;14.30;99.90;;;;;;5015929;28;20120;-81
2023/04/23 08:04:31;;;;;;;36.67;30.67;;;14.60;99.90;;;;;;4999710;28;20107;-81
2023/04/23 08:06:57;;;;;;;37.40;30.52;;;14.90;99.90;;;;;;5015951;28;20045;-81
2023/04/23 08:09:23;;;;;;;37.42;31.90;;;15.20;99.90;;;;;;5015953;28;20453;-82
2023/04/23 08:11:53;;;;;;;36.60;31.52;;;15.50;99.90;;;;;;5015571;28;20497;-81
2023/04/23 08:14:19;;;;;;;34.58;28.67;;;15.80;99.90;;;;;;4999721;28;20050;-81
2023/04/23 08:16:45;;;;;;;34.08;28.35;;;16.00;99.90;;;;;;5015863;28;20056;-80
2023/04/23 08:19:11;;;;;;;33.10;27.23;;;16.10;99.90;;;;;;5015949;28;20068;-81
2023/04/23 08:21:37;;;;;;;33.15;28.58;;;16.00;99.90;;;;;;4998913;28;20037;-81
2023/04/23 08:24:03;;;;;;;33.63;29.73;;;16.00;99.90;;;;;;5015901;28;20072;-81
2023/04/23 08:26:29;;;;;;;33.88;29.23;;;16.00;99.90;;;;;;4999042;28;20049;-81
2023/04/23 08:28:56;;;;;;;33.50;28.45;;;16.20;99.90;;;;;;5015821;28;20111;-82
2023/04/23 08:31:22;;;;;;;32.10;28.50;;;16.40;99.90;;;;;;4999387;28;20061;-82
2023/04/23 08:33:47;;;;;;;31.45;27.25;;;16.60;99.90;;;;;;4971241;28;20049;-82
2023/04/23 08:36:14;;;;;;;34.42;29.17;;;17.00;99.90;;;;;;4995660;28;20053;-81
2023/04/23 08:38:40;;;;;;;32.92;29.20;;;17.10;99.90;;;;;;4979573;28;20081;-82
2023/04/23 08:41:10;;;;;;;32.78;28.65;;;17.20;99.90;;;;;;4963859;28;20045;-81
2023/04/23 08:44:05;;;;;;;34.17;28.95;;;17.30;99.90;;;;;;4999431;28;20050;-81
2023/04/23 08:46:32;;;;;;;32.60;28.77;;;17.40;99.90;;;;;;4981557;28;20060;-81
2023/04/23 08:49:02;;;;;;;32.60;28.02;;;17.50;99.90;;;;;;4967151;28;20482;-82
2023/04/23 08:51:32;;;;;;;31.27;26.25;;;17.50;99.90;;;;;;4999879;28;20046;-81
2023/04/23 08:54:03;;;;;;;29.67;25.67;;;17.60;99.90;;;;;;4999821;28;20084;-82
2023/04/23 08:56:30;;;;;;;29.10;25.85;;;17.70;99.90;;;;;;4999824;28;20054;-82
2023/04/23 08:58:56;;;;;;;28.67;25.08;;;17.60;99.90;;;;;;4999769;28;20058;-81
2023/04/23 09:01:22;;;;;;;27.70;24.60;;;17.80;99.90;;;;;;4999043;28;20379;-81
2023/04/23 09:03:48;;;;;;;24.95;21.80;;;17.80;99.90;;;;;;4983069;28;20050;-81
2023/04/23 09:06:13;;;;;;;27.42;24.00;;;17.90;99.90;;;;;;4983140;28;20555;-82
2023/04/23 09:08:40;;;;;;;27.80;24.55;;;18.00;99.90;;;;;;4999405;28;20054;-81
2023/04/23 09:11:06;;;;;;;26.90;23.73;;;18.10;99.90;;;;;;4983456;28;20349;-82
2023/04/23 09:13:35;;;;;;;25.30;22.58;;;18.40;99.90;;;;;;4982941;28;20490;-82
2023/04/23 09:16:03;;;;;;;23.23;19.65;;;18.40;99.90;;;;;;4982949;28;20058;-82
2023/04/23 09:18:29;;;;;;;22.13;19.00;;;18.50;99.90;;;;;;4963131;28;20513;-82
2023/04/23 09:20:55;;;;;;;23.15;19.48;;;18.60;99.90;;;;;;4983007;28;20084;-81
2023/04/23 09:23:22;;;;;;;21.90;19.48;;;18.70;99.90;;;;;;4998843;28;20139;-82
2023/04/23 09:25:47;;;;;;;20.45;17.75;;;18.60;99.90;;;;;;4999319;28;20056;-82
2023/04/23 09:28:14;;;;;;;21.90;18.10;;;18.60;99.90;;;;;;4999179;28;20042;-81
2023/04/23 09:30:51;;;;;;;20.20;17.38;;;18.70;99.90;;;;;;4999010;28;20053;-83
2023/04/23 09:33:17;;;;;;;19.95;16.83;;;18.80;99.90;;;;;;5006147;28;20050;-82
2023/04/23 09:35:43;;;;;;;18.30;14.95;;;18.80;99.90;;;;;;5018689;28;20057;-82
2023/04/23 09:38:09;;;;;;;19.35;14.43;;;18.50;99.90;;;;;;5018736;28;20396;-82
2023/04/23 09:40:36;;;;;;;18.73;15.02;;;18.60;99.90;;;;;;5018610;28;20392;-81
2023/04/23 09:43:04;;;;;;;17.25;13.25;;;18.70;99.90;;;;;;5018468;28;20052;-84
2023/04/23 09:45:31;;;;;;;16.60;12.35;;;18.80;99.90;;;;;;5018736;28;20049;-82
2023/04/23 09:47:57;;;;;;;16.45;11.95;;;18.80;99.90;;;;;;5002399;28;20056;-82
2023/04/23 09:50:37;;;;;;;15.90;11.95;;;18.70;99.90;;;;;;5001547;28;20046;-82
2023/04/23 09:53:05;;;;;;;10.80;7.00;;;18.60;99.90;;;;;;5017663;28;20045;-83
2023/04/23 09:55:37;;;;;;;13.52;9.45;;;18.80;99.90;;;;;;5017500;28;20458;-82
2023/04/23 09:58:14;;;;;;;14.77;10.10;;;18.90;99.90;;;;;;5018237;28;20114;-83
2023/04/23 10:00:41;;;;;;;12.20;7.20;;;18.90;99.90;;;;;;5001937;28;20049;-83
2023/04/23 10:03:08;;;;;;;12.43;7.75;;;18.90;99.90;;;;;;5018142;28;20060;-82
2023/04/23 10:05:39;;;;;;;11.82;8.00;;;19.00;99.90;;;;;;5018020;28;20045;-82
2023/04/23 10:08:06;;;;;;;12.43;7.78;;;19.00;99.90;;;;;;5001810;28;20436;-81
2023/04/23 10:10:35;;;;;;;12.23;7.35;;;18.80;99.90;;;;;;5017491;28;20060;-82
2023/04/23 10:13:01;;;;;;;11.48;7.53;;;18.50;99.90;;;;;;5017720;28;20392;-83
2023/04/23 10:15:27;;;;;;;13.02;8.10;;;18.60;99.90;;;;;;5001763;28;20542;-83
2023/04/23 10:17:54;;;;;;;11.95;7.97;;;18.90;99.90;;;;;;5001775;28;20420;-84
2023/04/23 10:20:22;;;;;;;11.50;7.20;;;19.30;99.90;;;;;;5017933;28;20392;-84
2023/04/23 10:22:48;;;;;;;13.07;7.55;;;19.50;99.90;;;;;;5017526;28;20056;-83
2023/04/23 10:25:15;;;;;;;10.25;6.70;;;19.70;99.90;;;;;;5000565;28;20471;-85
2023/04/23 10:27:52;;;;;;;10.65;7.18;;;19.90;99.90;;;;;;5017045;28;20133;-85
2023/04/23 10:30:19;;;;;;;9.90;6.35;;;20.00;99.90;;;;;;4997782;28;20050;-85
2023/04/23 10:32:47;;;;;;;10.57;6.30;;;20.10;99.90;;;;;;4981698;28;20087;-84
2023/04/23 10:35:13;;;;;;;10.32;6.22;;;20.20;99.90;;;;;;4997710;28;20441;-83
2023/04/23 10:37:40;;;;;;;10.27;5.85;;;20.30;99.90;;;;;;4997329;28;20042;-83
2023/04/23 10:40:15;;;;;;;10.55;5.80;;;20.10;99.90;;;;;;4981847;28;20086;-83
2023/04/23 10:42:43;;;;;;;10.95;5.20;;;20.00;99.90;;;;;;4997269;28;20448;-85
2023/04/23 10:45:15;;;;;;;9.02;5.40;;;20.00;99.90;;;;;;4997643;28;20486;-83
2023/04/23 10:47:43;;;;;;;9.90;5.88;;;19.90;99.90;;;;;;4997508;28;20129;-85
2023/04/23 10:50:27;;;;;;;8.65;5.30;;;20.00;99.90;;;;;;4997637;28;20050;-84
2023/04/23 10:52:55;;;;;;;8.85;4.60;;;20.20;99.90;;;;;;4997696;28;20061;-84
2023/04/23 10:55:23;;;;;;;9.98;4.15;;;20.40;99.90;;;;;;5013876;28;20413;-84
2023/04/23 10:58:00;;;;;;;10.57;4.32;;;20.50;99.00;;;;;;4998482;28;20061;-82
2023/04/23 11:00:27;;;;;;;9.02;4.30;;;20.30;99.90;;;;;;5000770;28;20049;-84
2023/04/23 11:03:01;;;;;;;9.07;4.20;;;20.40;99.90;;;;;;5000666;28;20045;-84
2023/04/23 11:05:28;;;;;;;7.68;3.72;;;20.40;98.80;;;;;;5016482;28;20099;-85
2023/04/23 11:08:05;;;;;;;7.70;3.70;;;20.30;96.80;;;;;;5016717;28;20049;-84
2023/04/23 11:10:31;;;;;;;7.25;3.53;;;19.80;95.50;;;;;;5000747;28;20053;-84
2023/04/23 11:13:17;;;;;;;9.30;3.70;;;19.80;99.90;;;;;;5016652;28;20092;-85
2023/04/23 11:15:43;;;;;;;8.57;3.55;;;19.90;99.40;;;;;;5000127;28;20049;-84
2023/04/23 11:18:10;;;;;;;8.57;3.22;;;19.80;97.40;;;;;;4999869;28;20048;-85
2023/04/23 11:20:36;;;;;;;6.45;2.97;;;19.80;99.00;;;;;;5016616;28;20045;-85
2023/04/23 11:23:06;;;;;;;7.35;2.60;;;20.00;99.30;;;;;;5000040;28;20378;-85
2023/04/23 11:25:32;;;;;;;6.65;2.70;;;20.10;94.20;;;;;;5016750;28;20057;-85
2023/04/23 11:28:01;;;;;;;6.25;2.80;;;20.00;95.60;;;;;;5016827;28;20068;-86
2023/04/23 11:30:29;;;;;;;7.40;2.90;;;20.20;98.20;;;;;;5016773;28;20056;-85
2023/04/23 11:32:56;;;;;;;6.30;2.80;;;20.20;94.70;;;;;;5015888;28;20056;-86
2023/04/23 11:35:36;;;;;;;6.93;2.70;;;20.20;95.20;;;;;;5016518;28;20141;-86
2023/04/23 11:38:07;;;;;;;7.22;2.75;;;19.90;96.00;;;;;;5016192;28;20512;-86
2023/04/23 11:40:33;;;;;;;7.18;2.72;;;19.80;95.60;;;;;;5000236;28;20046;-84
2023/04/23 11:42:59;;;;;;;7.25;2.70;;;19.80;96.70;;;;;;4984015;28;20503;-86
2023/04/23 11:45:27;;;;;;;7.43;2.75;;;19.70;96.70;;;;;;5016396;28;20076;-84
2023/04/23 11:47:55;;;;;;;7.70;2.83;;;19.50;95.70;;;;;;4999888;28;20059;-84
2023/04/23 11:50:31;;;;;;;6.78;2.75;;;19.20;95.70;;;;;;4999461;28;20060;-84
2023/04/23 11:53:09;;;;;;;8.32;2.60;;;19.00;97.50;;;;;;5016147;28;20077;-84
2023/04/23 11:55:42;;;;;;;8.05;2.25;;;18.90;97.50;;;;;;5000325;28;20485;-85
2023/04/23 11:58:08;;;;;;;6.57;2.10;;;18.90;96.40;;;;;;4984474;28;20047;-84
2023/04/23 12:00:34;;;;;;;6.70;2.30;;;18.80;97.00;;;;;;4999756;28;20381;-84
2023/04/23 12:03:03;;;;;;;7.93;2.20;;;18.70;97.40;;;;;;4999920;28;20076;-85
2023/04/23 12:05:39;;;;;;;6.93;2.03;;;18.80;98.60;;;;;;5016072;28;20104;-85
2023/04/23 12:08:15;;;;;;;5.45;1.90;;;19.00;95.70;;;;;;4999420;28;20085;-85
2023/04/23 12:10:58;;;;;;;8.18;2.10;;;19.00;95.20;;;;;;5016093;28;20056;-85
2023/04/23 12:13:34;;;;;;;7.53;2.30;;;19.00;95.50;;;;;;5032419;28;20045;-85
2023/04/23 12:16:02;;;;;;;6.90;2.13;;;19.20;95.40;;;;;;5015510;28;20046;-86
2023/04/23 12:18:36;;;;;;;8.50;2.30;;;19.60;95.70;;;;;;5015532;28;20072;-86
2023/04/23 12:21:12;;;;;;;8.07;2.13;;;19.60;94.50;;;;;;5015903;28;20169;-86
2023/04/23 12:23:43;;;;;;;6.90;1.85;;;19.80;94.30;;;;;;5016085;28;20041;-86
2023/04/23 12:26:16;;;;;;;8.35;2.15;;;20.00;93.40;;;;;;5016055;28;20085;-86
2023/04/23 12:28:46;;;;;;;8.10;2.05;;;20.30;92.80;;;;;;4999173;28;20098;-85
2023/04/23 12:31:22;;;;;;;6.68;1.90;;;20.40;90.50;;;;;;4999784;28;20057;-85
2023/04/23 12:34:02;;;;;;;9.82;1.92;;;20.50;89.50;;;;;;5007367;28;20432;-83